createdAt,value
2018-09-29T00:00:53.094Z,67.17
2018-09-29T00:03:22.123Z,66.80
2018-09-29T00:05:50.832Z,66.38
2018-09-29T00:08:19.872Z,66.54
2018-09-29T00:10:48.697Z,66.88
2018-09-29T00:13:17.375Z,66.41
2018-09-29T00:15:46.099Z,66.50
2018-09-29T00:18:14.893Z,66.83
2018-09-29T00:20:43.954Z,66.63
2018-09-29T00:23:12.663Z,66.65
2018-09-29T00:25:41.381Z,67.04
2018-09-29T00:28:10.034Z,67.28
2018-09-29T00:30:38.688Z,67.63
2018-09-29T00:33:07.388Z,67.97
2018-09-29T00:35:36.157Z,67.66
2018-09-29T00:38:04.862Z,67.92
2018-09-29T00:40:33.613Z,68.42
2018-09-29T00:43:02.994Z,68.23
2018-09-29T00:45:31.540Z,68.56
2018-09-29T00:48:00.269Z,68.58
2018-09-29T00:50:28.899Z,68.21
2018-09-29T00:52:57.740Z,68.01
2018-09-29T00:55:26.430Z,67.90
2018-09-29T00:57:55.070Z,68.33
2018-09-29T01:00:23.715Z,68.26
2018-09-29T01:02:52.334Z,68.13
2018-09-29T01:05:21.050Z,68.40
2018-09-29T01:07:49.810Z,67.87
2018-09-29T01:10:18.421Z,68.10
2018-09-29T01:12:47.154Z,67.77
2018-09-29T01:15:15.773Z,68.06
2018-09-29T01:17:44.459Z,68.10
2018-09-29T01:20:13.209Z,67.98
2018-09-29T01:22:41.781Z,67.46
2018-09-29T01:25:13.467Z,67.44
2018-09-29T01:27:42.210Z,67.99
2018-09-29T01:30:10.909Z,68.35
2018-09-29T01:32:39.584Z,68.05
2018-09-29T01:35:08.284Z,67.84
2018-09-29T01:37:37.181Z,67.75
2018-09-29T01:40:05.844Z,67.72
2018-09-29T01:42:34.582Z,67.48
2018-09-29T01:45:03.716Z,67.55
2018-09-29T01:47:32.318Z,67.68
2018-09-29T01:50:00.939Z,67.67
2018-09-29T01:52:29.681Z,67.86
2018-09-29T01:54:58.277Z,68.51
2018-09-29T01:57:26.906Z,68.67
2018-09-29T01:59:55.939Z,68.55
2018-09-29T02:02:24.572Z,69.49
2018-09-29T02:04:54.377Z,69.31
2018-09-29T02:07:23.240Z,69.97
2018-09-29T02:09:52.668Z,69.86
2018-09-29T02:12:21.382Z,69.76
2018-09-29T02:14:50.132Z,69.56
2018-09-29T02:17:18.707Z,69.86
2018-09-29T02:19:47.583Z,70.12
2018-09-29T02:22:16.419Z,69.90
2018-09-29T02:24:45.103Z,70.58
2018-09-29T02:27:13.652Z,70.13
2018-09-29T02:29:42.348Z,70.03
2018-09-29T02:32:10.945Z,70.11
2018-09-29T02:34:39.540Z,69.74
2018-09-29T02:37:08.892Z,70.44
2018-09-29T02:39:37.579Z,70.77
2018-09-29T02:42:06.282Z,70.50
2018-09-29T02:44:34.893Z,70.53
2018-09-29T02:47:05.027Z,70.46
2018-09-29T02:49:33.530Z,70.46
2018-09-29T02:52:03.272Z,69.96
2018-09-29T02:54:31.894Z,70.31
2018-09-29T02:57:00.573Z,70.28
2018-09-29T02:59:29.598Z,70.69
2018-09-29T03:01:58.157Z,70.72
2018-09-29T03:04:26.828Z,70.59
2018-09-29T03:06:55.546Z,70.57
2018-09-29T03:09:24.107Z,70.43
2018-09-29T03:11:53.048Z,69.79
2018-09-29T03:14:21.705Z,70.06
2018-09-29T03:16:50.379Z,70.13
2018-09-29T03:19:19.070Z,69.77
2018-09-29T03:21:47.838Z,69.63
2018-09-29T03:24:16.421Z,69.92
2018-09-29T03:26:45.056Z,70.62
2018-09-29T03:29:13.694Z,69.96
2018-09-29T03:31:42.604Z,70.39
2018-09-29T03:34:10.993Z,70.16
2018-09-29T03:36:39.685Z,70.05
2018-09-29T03:39:09.995Z,70.15
2018-09-29T03:41:38.921Z,70.47
2018-09-29T03:44:07.956Z,70.37
2018-09-29T03:46:36.839Z,70.89
2018-09-29T03:49:05.504Z,70.74
2018-09-29T03:51:34.213Z,70.59
2018-09-29T03:54:03.006Z,70.77
2018-09-29T03:56:31.622Z,70.56
2018-09-29T03:59:00.405Z,70.76
2018-09-29T04:01:29.012Z,70.66
2018-09-29T04:03:57.553Z,70.62
2018-09-29T04:06:26.155Z,71.06
2018-09-29T04:08:54.809Z,70.91
2018-09-29T04:11:23.438Z,71.00
2018-09-29T04:13:52.602Z,71.03
2018-09-29T04:16:21.184Z,71.39
2018-09-29T04:18:49.867Z,71.06
2018-09-29T04:21:18.608Z,71.18
2018-09-29T04:23:47.210Z,71.17
2018-09-29T04:26:15.815Z,71.11
2018-09-29T04:28:44.717Z,71.63
2018-09-29T04:31:13.475Z,71.37
2018-09-29T04:33:42.264Z,71.22
2018-09-29T04:36:10.902Z,70.75
2018-09-29T04:38:39.557Z,70.62
2018-09-29T04:41:08.199Z,70.91
2018-09-29T04:43:36.961Z,71.08
2018-09-29T04:46:05.618Z,71.10
2018-09-29T04:48:34.345Z,70.87
2018-09-29T04:51:04.410Z,70.60
2018-09-29T04:53:33.075Z,70.62
2018-09-29T04:56:01.762Z,70.26
2018-09-29T04:58:30.433Z,70.37
2018-09-29T05:00:59.145Z,70.50
2018-09-29T05:03:27.963Z,70.27
2018-09-29T05:05:56.603Z,69.79
2018-09-29T05:08:25.637Z,69.68
2018-09-29T05:10:54.307Z,69.77
2018-09-29T05:13:22.936Z,69.64
2018-09-29T05:15:51.590Z,69.67
2018-09-29T05:18:20.104Z,69.36
2018-09-29T05:20:48.753Z,69.88
2018-09-29T05:23:17.382Z,70.15
2018-09-29T05:25:45.945Z,70.54
2018-09-29T05:28:14.569Z,70.66
2018-09-29T05:30:43.598Z,71.16
2018-09-29T05:33:12.168Z,71.13
2018-09-29T05:35:40.897Z,72.39
2018-09-29T05:38:09.504Z,72.57
2018-09-29T05:40:38.048Z,72.47
2018-09-29T05:43:06.812Z,72.10
2018-09-29T05:45:35.501Z,72.36
2018-09-29T05:48:04.818Z,72.46
2018-09-29T05:50:33.486Z,72.25
2018-09-29T05:53:02.786Z,72.27
2018-09-29T05:55:31.476Z,72.27
2018-09-29T05:58:00.084Z,72.51
2018-09-29T06:00:28.740Z,72.18
2018-09-29T06:02:57.408Z,72.29
2018-09-29T06:05:26.110Z,72.25
2018-09-29T06:07:54.688Z,72.41
2018-09-29T06:10:23.288Z,72.78
2018-09-29T06:12:51.992Z,73.01
2018-09-29T06:15:20.627Z,72.95
2018-09-29T06:17:49.150Z,72.66
2018-09-29T06:20:17.794Z,72.84
2018-09-29T06:22:46.392Z,72.67
2018-09-29T06:25:15.254Z,72.81
2018-09-29T06:27:43.973Z,72.53
2018-09-29T06:30:12.656Z,72.47
2018-09-29T06:32:41.261Z,72.38
2018-09-29T06:35:09.842Z,72.43
2018-09-29T06:37:38.619Z,72.09
2018-09-29T06:40:07.658Z,72.27
2018-09-29T06:42:36.237Z,72.11
2018-09-29T06:45:05.464Z,72.17
2018-09-29T06:47:34.085Z,72.06
2018-09-29T06:50:02.792Z,71.72
2018-09-29T06:52:31.418Z,71.35
2018-09-29T06:55:00.017Z,71.87
2018-09-29T06:57:28.790Z,71.57
2018-09-29T06:59:57.407Z,71.65
2018-09-29T07:02:25.983Z,71.63
2018-09-29T07:04:54.575Z,70.89
2018-09-29T07:07:23.172Z,70.60
2018-09-29T07:09:51.788Z,70.77
2018-09-29T07:12:20.485Z,71.00
2018-09-29T07:14:49.023Z,71.19
2018-09-29T07:17:17.617Z,71.72
2018-09-29T07:19:46.191Z,71.38
2018-09-29T07:22:14.729Z,71.47
2018-09-29T07:24:43.313Z,71.36
2018-09-29T07:27:11.960Z,71.16
2018-09-29T07:29:40.945Z,71.72
2018-09-29T07:32:09.598Z,71.22
2018-09-29T07:34:38.185Z,70.78
2018-09-29T07:37:06.841Z,70.61
2018-09-29T07:39:35.356Z,70.09
2018-09-29T07:42:04.060Z,70.23
2018-09-29T07:44:32.824Z,69.49
2018-09-29T07:47:01.848Z,69.46
2018-09-29T07:49:30.523Z,68.93
2018-09-29T07:51:59.128Z,68.38
2018-09-29T07:54:27.975Z,68.51
2018-09-29T07:56:56.771Z,68.14
2018-09-29T07:59:29.498Z,67.67
2018-09-29T08:01:58.670Z,67.61
2018-09-29T08:04:27.406Z,67.58
2018-09-29T08:06:56.090Z,66.62
2018-09-29T08:09:24.772Z,66.63
2018-09-29T08:11:53.463Z,66.25
2018-09-29T08:14:22.152Z,67.32
2018-09-29T08:16:50.790Z,66.40
2018-09-29T08:19:19.505Z,66.10
2018-09-29T08:21:48.405Z,65.27
2018-09-29T08:24:17.087Z,65.27
2018-09-29T08:26:45.756Z,65.52
2018-09-29T08:29:14.451Z,63.38
2018-09-29T08:31:43.184Z,63.28
2018-09-29T08:34:11.986Z,63.47
2018-09-29T08:36:40.689Z,63.31
2018-09-29T08:39:10.323Z,63.05
2018-09-29T08:41:39.165Z,63.02
2018-09-29T08:44:07.715Z,61.77
2018-09-29T08:46:36.464Z,62.42
2018-09-29T08:49:06.188Z,62.13
2018-09-29T08:51:34.771Z,61.81
2018-09-29T08:54:04.192Z,61.59
2018-09-29T08:56:32.900Z,61.55
2018-09-29T08:59:01.903Z,60.81
2018-09-29T09:01:30.616Z,61.51
2018-09-29T09:03:59.544Z,60.89
2018-09-29T09:06:28.131Z,60.47
2018-09-29T09:08:57.311Z,60.50
2018-09-29T09:11:26.161Z,59.38
2018-09-29T09:13:54.702Z,58.98
2018-09-29T09:16:23.377Z,59.40
2018-09-29T09:18:52.119Z,59.90
2018-09-29T09:21:20.668Z,59.14
2018-09-29T09:23:49.424Z,58.38
2018-09-29T09:26:18.051Z,58.69
2018-09-29T09:28:46.823Z,58.92
2018-09-29T09:31:15.503Z,57.18
2018-09-29T09:33:44.135Z,57.22
2018-09-29T09:36:12.826Z,55.82
2018-09-29T09:38:41.426Z,55.48
2018-09-29T09:41:10.166Z,54.72
2018-09-29T09:43:38.932Z,53.25
2018-09-29T09:46:07.669Z,55.04
2018-09-29T09:48:36.348Z,53.30
2018-09-29T09:51:05.024Z,54.53
2018-09-29T09:53:33.722Z,54.97
2018-09-29T09:56:03.358Z,54.36
2018-09-29T09:58:31.917Z,54.54
2018-09-29T10:01:05.791Z,53.44
2018-09-29T10:03:34.760Z,53.46
2018-09-29T10:06:03.608Z,53.49
2018-09-29T10:08:32.391Z,53.65
2018-09-29T10:11:01.647Z,53.73
2018-09-29T10:13:30.353Z,53.14
2018-09-29T10:15:59.241Z,52.16
2018-09-29T10:18:27.835Z,52.86
2018-09-29T10:21:02.818Z,51.67
2018-09-29T10:23:31.464Z,52.60
2018-09-29T10:26:00.269Z,51.30
2018-09-29T10:28:28.817Z,52.46
2018-09-29T10:30:57.591Z,52.72
2018-09-29T10:33:26.426Z,51.70
2018-09-29T10:35:55.016Z,52.15
2018-09-29T10:38:23.725Z,51.76
2018-09-29T10:40:52.407Z,51.36
2018-09-29T10:43:21.081Z,51.58
2018-09-29T10:45:49.871Z,51.11
2018-09-29T10:48:18.476Z,52.53
2018-09-29T10:50:47.125Z,51.89
2018-09-29T10:53:15.940Z,51.45
2018-09-29T10:55:44.624Z,50.91
2018-09-29T10:58:13.213Z,50.48
2018-09-29T11:00:41.780Z,51.76
2018-09-29T11:03:10.302Z,50.76
2018-09-29T11:05:38.836Z,49.80
2018-09-29T11:08:07.503Z,49.23
2018-09-29T11:10:36.150Z,49.95
2018-09-29T11:13:04.840Z,50.70
2018-09-29T11:15:33.486Z,50.61
2018-09-29T11:18:02.456Z,51.08
2018-09-29T11:20:31.167Z,51.16
2018-09-29T11:22:59.909Z,50.40
2018-09-29T11:25:28.543Z,50.23
2018-09-29T11:27:57.267Z,48.81
2018-09-29T11:30:25.925Z,47.68
2018-09-29T11:32:54.611Z,48.98
2018-09-29T11:35:23.603Z,49.83
2018-09-29T11:37:52.309Z,50.06
2018-09-29T11:40:21.256Z,50.04
2018-09-29T11:42:49.950Z,49.33
2018-09-29T11:45:18.566Z,47.11
2018-09-29T11:47:47.400Z,47.25
2018-09-29T11:50:16.038Z,45.70
2018-09-29T11:52:44.661Z,45.59
2018-09-29T11:55:13.490Z,45.51
2018-09-29T11:57:42.321Z,45.39
2018-09-29T12:00:11.034Z,46.08
2018-09-29T12:02:39.796Z,45.84
2018-09-29T12:05:08.557Z,46.00
2018-09-29T12:07:44.494Z,45.06
2018-09-29T12:10:13.168Z,45.19
2018-09-29T12:12:41.938Z,44.22
2018-09-29T12:15:10.546Z,44.10
2018-09-29T12:17:39.218Z,44.18
2018-09-29T12:20:07.875Z,44.17
2018-09-29T12:22:36.440Z,44.05
2018-09-29T12:25:06.495Z,45.37
2018-09-29T12:27:35.145Z,45.02
2018-09-29T12:30:04.021Z,45.56
2018-09-29T12:32:32.552Z,46.77
2018-09-29T12:35:02.263Z,46.35
2018-09-29T12:37:30.957Z,45.83
2018-09-29T12:39:59.763Z,46.02
2018-09-29T12:42:28.422Z,46.24
2018-09-29T12:44:57.037Z,46.21
2018-09-29T12:47:25.730Z,46.22
2018-09-29T12:49:54.440Z,45.57
2018-09-29T12:52:23.091Z,44.31
2018-09-29T12:54:51.879Z,43.73
2018-09-29T12:57:20.656Z,43.88
2018-09-29T12:59:49.388Z,43.33
2018-09-29T13:02:18.035Z,43.77
2018-09-29T13:04:46.771Z,42.93
2018-09-29T13:07:15.322Z,43.15
2018-09-29T13:09:44.040Z,43.04
2018-09-29T13:12:12.751Z,40.58
2018-09-29T13:14:41.356Z,40.70
2018-09-29T13:17:10.065Z,42.17
2018-09-29T13:19:38.792Z,41.25
2018-09-29T13:22:07.637Z,39.98
2018-09-29T13:24:36.261Z,39.75
2018-09-29T13:27:05.180Z,39.69
2018-09-29T13:29:33.875Z,38.09
2018-09-29T13:32:03.269Z,39.21
2018-09-29T13:34:31.882Z,38.30
2018-09-29T13:37:00.686Z,38.48
2018-09-29T13:39:29.423Z,39.20
2018-09-29T13:41:58.018Z,39.95
2018-09-29T13:44:26.612Z,39.52
2018-09-29T13:46:55.250Z,40.42
2018-09-29T13:49:24.037Z,40.01
2018-09-29T13:51:52.717Z,41.34
2018-09-29T13:54:21.275Z,41.18
2018-09-29T13:56:50.034Z,40.76
2018-09-29T13:59:18.771Z,40.82
2018-09-29T14:01:47.495Z,40.18
2018-09-29T14:04:16.130Z,40.10
2018-09-29T14:06:44.760Z,40.82
2018-09-29T14:09:13.951Z,40.96
2018-09-29T14:11:42.626Z,41.30
2018-09-29T14:14:11.252Z,42.26
2018-09-29T14:16:39.840Z,40.70
2018-09-29T14:19:08.516Z,40.99
2018-09-29T14:21:37.150Z,40.78
2018-09-29T14:24:05.815Z,39.97
2018-09-29T14:26:34.830Z,39.84
2018-09-29T14:29:04.430Z,39.30
2018-09-29T14:31:33.070Z,38.92
2018-09-29T14:34:01.825Z,38.47
2018-09-29T14:36:30.646Z,39.62
2018-09-29T14:38:59.363Z,38.27
2018-09-29T14:41:28.029Z,40.39
2018-09-29T14:43:56.624Z,39.57
2018-09-29T14:46:25.290Z,40.52
2018-09-29T14:48:56.731Z,40.28
2018-09-29T14:51:25.263Z,42.06
2018-09-29T14:53:54.232Z,40.33
2018-09-29T14:56:22.853Z,40.70
2018-09-29T14:58:51.508Z,39.40
2018-09-29T15:01:20.279Z,38.14
2018-09-29T15:03:49.020Z,38.97
2018-09-29T15:06:17.706Z,38.97
2018-09-29T15:08:46.319Z,38.85
2018-09-29T15:11:14.891Z,38.17
2018-09-29T15:13:43.643Z,39.04
2018-09-29T15:16:12.310Z,38.38
2018-09-29T15:18:40.901Z,38.89
2018-09-29T15:21:09.597Z,39.67
2018-09-29T15:23:38.735Z,39.49
2018-09-29T15:26:07.719Z,39.52
2018-09-29T15:28:36.301Z,39.25
2018-09-29T15:31:04.979Z,40.25
2018-09-29T15:33:33.720Z,40.60
2018-09-29T15:36:02.852Z,40.90
2018-09-29T15:38:31.424Z,39.82
2018-09-29T15:41:00.167Z,41.67
2018-09-29T15:43:29.346Z,40.57
2018-09-29T15:45:58.027Z,42.08
2018-09-29T15:48:26.693Z,42.47
2018-09-29T15:50:55.327Z,42.94
2018-09-29T15:53:24.013Z,43.58
2018-09-29T15:55:52.708Z,43.15
2018-09-29T15:58:21.377Z,43.01
2018-09-29T16:00:50.381Z,44.45
2018-09-29T16:03:19.124Z,43.23
2018-09-29T16:05:47.795Z,43.99
2018-09-29T16:08:16.444Z,43.07
2018-09-29T16:10:45.123Z,43.75
2018-09-29T16:13:13.820Z,44.70
2018-09-29T16:15:42.647Z,43.96
2018-09-29T16:18:11.181Z,44.53
2018-09-29T16:20:39.851Z,44.44
2018-09-29T16:23:08.535Z,44.53
2018-09-29T16:25:37.173Z,44.17
2018-09-29T16:28:05.903Z,44.97
2018-09-29T16:30:34.514Z,45.72
2018-09-29T16:33:03.624Z,44.65
2018-09-29T16:35:32.679Z,45.19
2018-09-29T16:38:02.514Z,46.29
2018-09-29T16:40:31.291Z,45.38
2018-09-29T16:42:59.917Z,46.10
2018-09-29T16:45:28.618Z,47.40
2018-09-29T16:47:57.178Z,47.06
2018-09-29T16:50:25.807Z,48.05
2018-09-29T16:52:54.418Z,48.17
2018-09-29T16:55:23.162Z,47.38
2018-09-29T16:57:51.898Z,48.62
2018-09-29T17:00:20.533Z,48.89
2018-09-29T17:02:49.167Z,48.77
2018-09-29T17:05:17.728Z,49.39
2018-09-29T17:07:46.550Z,50.12
2018-09-29T17:10:15.253Z,49.42
2018-09-29T17:12:44.043Z,50.80
2018-09-29T17:15:12.698Z,50.49
2018-09-29T17:17:41.399Z,51.54
2018-09-29T17:20:10.507Z,51.55
2018-09-29T17:22:39.154Z,51.72
2018-09-29T17:25:07.942Z,52.42
2018-09-29T17:27:36.562Z,53.08
2018-09-29T17:30:05.424Z,52.99
2018-09-29T17:32:34.043Z,52.91
2018-09-29T17:35:02.703Z,54.06
2018-09-29T17:37:31.936Z,53.90
2018-09-29T17:40:00.465Z,54.99
2018-09-29T17:42:28.995Z,54.77
2018-09-29T17:44:58.187Z,55.16
2018-09-29T17:47:26.832Z,55.49
2018-09-29T17:49:55.499Z,55.31
2018-09-29T17:52:24.052Z,56.14
2018-09-29T17:54:52.627Z,55.36
2018-09-29T17:57:21.313Z,55.09
2018-09-29T17:59:50.013Z,55.29
2018-09-29T18:02:18.688Z,54.18
2018-09-29T18:04:47.454Z,55.66
2018-09-29T18:07:16.065Z,55.26
2018-09-29T18:09:44.712Z,54.99
2018-09-29T18:12:13.378Z,55.65
2018-09-29T18:14:42.013Z,55.80
2018-09-29T18:17:10.832Z,55.02
2018-09-29T18:19:39.473Z,56.49
2018-09-29T18:22:08.317Z,56.79
2018-09-29T18:24:36.976Z,56.59
2018-09-29T18:27:05.613Z,56.94
2018-09-29T18:29:34.189Z,57.02
2018-09-29T18:32:02.921Z,57.18
2018-09-29T18:34:31.579Z,57.55
2018-09-29T18:37:00.187Z,57.41
2018-09-29T18:39:29.372Z,57.47
2018-09-29T18:41:58.027Z,57.25
2018-09-29T18:44:26.591Z,57.57
2018-09-29T18:46:55.229Z,57.68
2018-09-29T18:49:24.231Z,58.06
2018-09-29T18:51:52.974Z,57.38
2018-09-29T18:54:21.887Z,57.58
2018-09-29T18:56:51.242Z,57.72
2018-09-29T18:59:19.907Z,57.29
2018-09-29T19:01:48.561Z,57.03
2018-09-29T19:04:17.976Z,57.97
2018-09-29T19:06:46.834Z,57.80
2018-09-29T19:09:15.639Z,58.07
2018-09-29T19:11:45.264Z,58.73
2018-09-29T19:14:15.607Z,58.68
2018-09-29T19:16:44.429Z,58.97
2018-09-29T19:19:13.185Z,59.13
2018-09-29T19:21:41.797Z,58.88
2018-09-29T19:24:10.539Z,59.30
2018-09-29T19:26:39.213Z,59.54
2018-09-29T19:29:07.930Z,59.67
2018-09-29T19:31:36.557Z,59.81
2018-09-29T19:34:05.418Z,59.69
2018-09-29T19:36:34.061Z,59.92
2018-09-29T19:39:02.897Z,59.45
2018-09-29T19:41:31.580Z,60.13
2018-09-29T19:44:00.365Z,59.75
2018-09-29T19:46:29.175Z,59.99
2018-09-29T19:48:57.910Z,60.69
2018-09-29T19:51:26.660Z,60.07
2018-09-29T19:53:55.251Z,60.92
2018-09-29T19:56:24.154Z,62.07
2018-09-29T19:58:52.908Z,62.42
2018-09-29T20:01:21.500Z,62.82
2018-09-29T20:03:50.278Z,62.96
2018-09-29T20:06:19.157Z,63.31
2018-09-29T20:08:47.844Z,63.66
2018-09-29T20:11:16.705Z,63.63
2018-09-29T20:13:45.988Z,63.87
2018-09-29T20:16:14.591Z,63.74
2018-09-29T20:18:43.339Z,63.87
2018-09-29T20:21:12.462Z,63.90
2018-09-29T20:23:41.254Z,64.04
2018-09-29T20:26:10.126Z,64.16
2018-09-29T20:28:38.860Z,64.33
2018-09-29T20:31:07.485Z,64.11
2018-09-29T20:33:36.107Z,64.42
2018-09-29T20:36:05.004Z,64.38
2018-09-29T20:38:33.667Z,64.06
2018-09-29T20:41:03.178Z,63.71
2018-09-29T20:43:31.962Z,64.14
2018-09-29T20:46:00.678Z,64.13
2018-09-29T20:48:29.354Z,64.14
2018-09-29T20:50:58.421Z,64.08
2018-09-29T20:53:27.146Z,64.39
2018-09-29T20:55:55.745Z,64.10
2018-09-29T20:58:24.439Z,63.93
2018-09-29T21:00:53.269Z,64.21
2018-09-29T21:03:21.957Z,64.42
2018-09-29T21:05:50.674Z,64.38
2018-09-29T21:08:19.625Z,64.73
2018-09-29T21:10:48.318Z,64.64
2018-09-29T21:13:16.920Z,64.71
2018-09-29T21:15:45.536Z,64.88
2018-09-29T21:18:14.585Z,65.07
2018-09-29T21:20:43.367Z,65.14
2018-09-29T21:23:12.044Z,65.06
2018-09-29T21:25:40.665Z,64.97
2018-09-29T21:28:09.372Z,65.05
2018-09-29T21:30:38.286Z,64.87
2018-09-29T21:33:07.953Z,64.84
2018-09-29T21:35:36.507Z,64.85
2018-09-29T21:38:05.287Z,64.96
2018-09-29T21:40:33.993Z,65.15
2018-09-29T21:43:02.889Z,64.95
2018-09-29T21:45:31.515Z,65.17
2018-09-29T21:48:00.437Z,65.07
2018-09-29T21:50:29.070Z,64.74
2018-09-29T21:52:57.786Z,64.99
2018-09-29T21:55:26.608Z,64.65
2018-09-29T21:57:55.413Z,64.93
2018-09-29T22:00:29.416Z,64.97
2018-09-29T22:02:58.054Z,65.17
2018-09-29T22:05:26.644Z,64.91
2018-09-29T22:07:55.289Z,64.95
2018-09-29T22:10:24.156Z,65.21
2018-09-29T22:12:52.732Z,65.42
2018-09-29T22:15:21.508Z,64.79
2018-09-29T22:17:50.179Z,65.35
2018-09-29T22:20:18.994Z,65.35
2018-09-29T22:22:47.731Z,64.45
2018-09-29T22:25:16.479Z,64.58
2018-09-29T22:27:45.191Z,64.07
2018-09-29T22:30:14.047Z,63.88
2018-09-29T22:32:42.956Z,63.73
2018-09-29T22:35:12.563Z,63.61
2018-09-29T22:37:41.240Z,64.08
2018-09-29T22:40:09.850Z,63.19
2018-09-29T22:42:38.478Z,63.50
2018-09-29T22:45:07.106Z,63.56
2018-09-29T22:47:35.911Z,63.54
2018-09-29T22:50:04.684Z,63.13
2018-09-29T22:52:33.260Z,63.55
2018-09-29T22:55:01.899Z,63.72
2018-09-29T22:57:30.656Z,63.98
2018-09-29T22:59:59.181Z,63.86
2018-09-29T23:02:27.792Z,63.58
2018-09-29T23:04:56.424Z,63.63
2018-09-29T23:07:25.208Z,63.49
2018-09-29T23:09:53.698Z,63.60
2018-09-29T23:12:22.450Z,63.71
2018-09-29T23:14:50.985Z,64.07
2018-09-29T23:17:19.809Z,64.37
2018-09-29T23:19:48.522Z,63.99
2018-09-29T23:22:17.330Z,64.10
2018-09-29T23:24:45.983Z,63.89
2018-09-29T23:27:14.606Z,63.85
2018-09-29T23:29:43.542Z,64.41
2018-09-29T23:32:12.458Z,64.00
2018-09-29T23:34:41.049Z,63.87
2018-09-29T23:37:09.759Z,64.26
2018-09-29T23:39:38.323Z,63.77
2018-09-29T23:42:07.010Z,63.74
2018-09-29T23:44:35.847Z,64.31
2018-09-29T23:47:04.757Z,64.10
2018-09-29T23:49:33.380Z,63.69
2018-09-29T23:52:03.052Z,63.88
2018-09-29T23:54:31.723Z,64.50
2018-09-29T23:57:00.391Z,63.91
2018-09-29T23:59:28.989Z,63.26
